sensor_id;sensor_type;location;lat;lon;timestamp;P1;durP1;ratioP1;P2;durP2;ratioP2
65393;SDS011;52002;49.760;6.512;2023-08-06T00:01:49;2.70;;;1.70;;
65393;SDS011;52002;49.760;6.512;2023-08-06T00:04:14;3.80;;;1.70;;
65393;SDS011;52002;49.760;6.512;2023-08-06T00:06:39;3.20;;;1.50;;
65393;SDS011;52002;49.760;6.512;2023-08-06T00:09:05;4.80;;;1.50;;
65393;SDS011;52002;49.760;6.512;2023-08-06T00:11:31;5.00;;;1.60;;
65393;SDS011;52002;49.760;6.512;2023-08-06T00:13:56;3.60;;;1.50;;
65393;SDS011;52002;49.760;6.512;2023-08-06T00:16:22;4.00;;;1.30;;
65393;SDS011;52002;49.760;6.512;2023-08-06T00:18:47;2.80;;;1.80;;
65393;SDS011;52002;49.760;6.512;2023-08-06T00:21:13;7.90;;;1.70;;
65393;SDS011;52002;49.760;6.512;2023-08-06T00:23:39;7.30;;;1.70;;
65393;SDS011;52002;49.760;6.512;2023-08-06T00:26:05;3.40;;;1.30;;
65393;SDS011;52002;49.760;6.512;2023-08-06T00:28:30;3.00;;;1.40;;
65393;SDS011;52002;49.760;6.512;2023-08-06T00:30:55;3.90;;;1.20;;
65393;SDS011;52002;49.760;6.512;2023-08-06T00:33:22;4.40;;;1.00;;
65393;SDS011;52002;49.760;6.512;2023-08-06T00:35:48;3.60;;;1.40;;
65393;SDS011;52002;49.760;6.512;2023-08-06T00:38:13;7.50;;;1.20;;
65393;SDS011;52002;49.760;6.512;2023-08-06T00:40:38;3.10;;;1.50;;
65393;SDS011;52002;49.760;6.512;2023-08-06T00:43:03;2.80;;;1.30;;
65393;SDS011;52002;49.760;6.512;2023-08-06T00:45:29;3.90;;;1.50;;
65393;SDS011;52002;49.760;6.512;2023-08-06T00:47:55;3.20;;;1.50;;
65393;SDS011;52002;49.760;6.512;2023-08-06T00:50:21;5.00;;;1.40;;
65393;SDS011;52002;49.760;6.512;2023-08-06T00:52:50;5.10;;;1.50;;
65393;SDS011;52002;49.760;6.512;2023-08-06T00:55:16;3.30;;;1.20;;
65393;SDS011;52002;49.760;6.512;2023-08-06T00:57:42;2.90;;;1.20;;
65393;SDS011;52002;49.760;6.512;2023-08-06T01:00:08;6.00;;;1.20;;
65393;SDS011;52002;49.760;6.512;2023-08-06T01:02:34;4.00;;;1.50;;
65393;SDS011;52002;49.760;6.512;2023-08-06T01:04:59;3.00;;;1.50;;
65393;SDS011;52002;49.760;6.512;2023-08-06T01:13:24;5.80;;;1.30;;
65393;SDS011;52002;49.760;6.512;2023-08-06T01:15:56;6.80;;;1.40;;
65393;SDS011;52002;49.760;6.512;2023-08-06T01:18:26;2.30;;;1.10;;
65393;SDS011;52002;49.760;6.512;2023-08-06T01:20:51;3.50;;;1.10;;
65393;SDS011;52002;49.760;6.512;2023-08-06T01:23:18;3.50;;;0.90;;
65393;SDS011;52002;49.760;6.512;2023-08-06T01:28:22;4.00;;;1.00;;
65393;SDS011;52002;49.760;6.512;2023-08-06T01:31:10;3.80;;;1.10;;
65393;SDS011;52002;49.760;6.512;2023-08-06T01:33:51;2.30;;;0.80;;
65393;SDS011;52002;49.760;6.512;2023-08-06T01:36:18;3.40;;;0.70;;
65393;SDS011;52002;49.760;6.512;2023-08-06T01:38:45;4.50;;;0.80;;
65393;SDS011;52002;49.760;6.512;2023-08-06T01:41:11;7.50;;;1.10;;
65393;SDS011;52002;49.760;6.512;2023-08-06T01:43:36;1.60;;;0.70;;
65393;SDS011;52002;49.760;6.512;2023-08-06T01:46:01;2.90;;;0.90;;
65393;SDS011;52002;49.760;6.512;2023-08-06T01:48:27;1.90;;;0.40;;
65393;SDS011;52002;49.760;6.512;2023-08-06T01:50:52;2.20;;;0.80;;
65393;SDS011;52002;49.760;6.512;2023-08-06T01:53:17;2.50;;;0.70;;
65393;SDS011;52002;49.760;6.512;2023-08-06T01:55:47;4.30;;;0.60;;
65393;SDS011;52002;49.760;6.512;2023-08-06T01:58:13;5.10;;;1.00;;
65393;SDS011;52002;49.760;6.512;2023-08-06T02:00:38;0.30;;;0.30;;
65393;SDS011;52002;49.760;6.512;2023-08-06T02:03:03;1.60;;;0.60;;
65393;SDS011;52002;49.760;6.512;2023-08-06T02:05:29;4.90;;;1.10;;
65393;SDS011;52002;49.760;6.512;2023-08-06T02:07:54;1.50;;;0.30;;
65393;SDS011;52002;49.760;6.512;2023-08-06T02:10:19;2.40;;;0.50;;
65393;SDS011;52002;49.760;6.512;2023-08-06T02:12:44;0.40;;;0.20;;
65393;SDS011;52002;49.760;6.512;2023-08-06T02:15:10;2.90;;;0.60;;
65393;SDS011;52002;49.760;6.512;2023-08-06T02:17:35;1.30;;;0.50;;
65393;SDS011;52002;49.760;6.512;2023-08-06T02:20:00;2.40;;;0.60;;
65393;SDS011;52002;49.760;6.512;2023-08-06T02:22:26;1.20;;;0.30;;
65393;SDS011;52002;49.760;6.512;2023-08-06T02:24:51;0.80;;;0.30;;
65393;SDS011;52002;49.760;6.512;2023-08-06T02:27:17;0.40;;;0.40;;
65393;SDS011;52002;49.760;6.512;2023-08-06T02:29:42;0.80;;;0.30;;
65393;SDS011;52002;49.760;6.512;2023-08-06T02:32:07;0.60;;;0.30;;
65393;SDS011;52002;49.760;6.512;2023-08-06T02:34:33;2.70;;;0.30;;
65393;SDS011;52002;49.760;6.512;2023-08-06T02:36:58;0.90;;;0.30;;
65393;SDS011;52002;49.760;6.512;2023-08-06T02:39:23;1.70;;;0.50;;
65393;SDS011;52002;49.760;6.512;2023-08-06T02:41:49;1.10;;;0.40;;
65393;SDS011;52002;49.760;6.512;2023-08-06T02:44:14;3.00;;;0.30;;
65393;SDS011;52002;49.760;6.512;2023-08-06T02:46:39;3.40;;;0.50;;
65393;SDS011;52002;49.760;6.512;2023-08-06T02:49:06;1.20;;;0.70;;
65393;SDS011;52002;49.760;6.512;2023-08-06T02:51:31;2.90;;;0.50;;
65393;SDS011;52002;49.760;6.512;2023-08-06T02:53:56;1.30;;;0.50;;
65393;SDS011;52002;49.760;6.512;2023-08-06T02:56:22;2.80;;;0.40;;
65393;SDS011;52002;49.760;6.512;2023-08-06T02:58:47;1.60;;;0.50;;
65393;SDS011;52002;49.760;6.512;2023-08-06T03:01:13;2.80;;;0.60;;
65393;SDS011;52002;49.760;6.512;2023-08-06T03:03:39;3.50;;;0.40;;
65393;SDS011;52002;49.760;6.512;2023-08-06T03:06:04;1.40;;;0.50;;
65393;SDS011;52002;49.760;6.512;2023-08-06T03:08:29;4.80;;;0.50;;
65393;SDS011;52002;49.760;6.512;2023-08-06T03:10:55;1.40;;;0.50;;
65393;SDS011;52002;49.760;6.512;2023-08-06T03:13:20;2.60;;;0.50;;
65393;SDS011;52002;49.760;6.512;2023-08-06T03:15:58;1.80;;;0.40;;
65393;SDS011;52002;49.760;6.512;2023-08-06T03:18:24;5.00;;;0.60;;
65393;SDS011;52002;49.760;6.512;2023-08-06T03:20:53;9.40;;;1.10;;
65393;SDS011;52002;49.760;6.512;2023-08-06T03:23:19;1.20;;;0.30;;
65393;SDS011;52002;49.760;6.512;2023-08-06T03:25:44;1.00;;;0.50;;
65393;SDS011;52002;49.760;6.512;2023-08-06T03:28:10;4.70;;;0.60;;
65393;SDS011;52002;49.760;6.512;2023-08-06T03:30:35;7.00;;;0.40;;
65393;SDS011;52002;49.760;6.512;2023-08-06T03:33:01;1.00;;;0.30;;
65393;SDS011;52002;49.760;6.512;2023-08-06T03:35:26;1.00;;;0.60;;
65393;SDS011;52002;49.760;6.512;2023-08-06T03:37:52;3.30;;;0.50;;
65393;SDS011;52002;49.760;6.512;2023-08-06T03:40:17;2.30;;;0.30;;
65393;SDS011;52002;49.760;6.512;2023-08-06T03:42:42;12.40;;;0.60;;
65393;SDS011;52002;49.760;6.512;2023-08-06T03:45:08;1.40;;;0.40;;
65393;SDS011;52002;49.760;6.512;2023-08-06T03:47:34;5.00;;;0.60;;
65393;SDS011;52002;49.760;6.512;2023-08-06T03:49:59;5.10;;;1.10;;
65393;SDS011;52002;49.760;6.512;2023-08-06T03:52:24;4.70;;;0.80;;
65393;SDS011;52002;49.760;6.512;2023-08-06T03:54:50;2.20;;;0.60;;
65393;SDS011;52002;49.760;6.512;2023-08-06T03:57:15;4.70;;;0.40;;
65393;SDS011;52002;49.760;6.512;2023-08-06T03:59:41;1.80;;;0.50;;
65393;SDS011;52002;49.760;6.512;2023-08-06T04:02:06;4.30;;;1.00;;
65393;SDS011;52002;49.760;6.512;2023-08-06T04:04:31;2.30;;;0.60;;
65393;SDS011;52002;49.760;6.512;2023-08-06T04:06:57;3.10;;;0.30;;
65393;SDS011;52002;49.760;6.512;2023-08-06T04:09:22;2.20;;;0.60;;
65393;SDS011;52002;49.760;6.512;2023-08-06T04:11:47;1.60;;;0.60;;
65393;SDS011;52002;49.760;6.512;2023-08-06T04:14:13;4.50;;;0.90;;
65393;SDS011;52002;49.760;6.512;2023-08-06T04:16:38;6.40;;;0.80;;
65393;SDS011;52002;49.760;6.512;2023-08-06T04:19:03;2.20;;;0.50;;
65393;SDS011;52002;49.760;6.512;2023-08-06T04:21:28;5.60;;;0.70;;
65393;SDS011;52002;49.760;6.512;2023-08-06T04:23:54;0.60;;;0.30;;
65393;SDS011;52002;49.760;6.512;2023-08-06T04:26:21;2.10;;;0.80;;
65393;SDS011;52002;49.760;6.512;2023-08-06T04:28:46;2.30;;;0.80;;
65393;SDS011;52002;49.760;6.512;2023-08-06T04:31:11;1.70;;;0.60;;
65393;SDS011;52002;49.760;6.512;2023-08-06T04:33:37;2.00;;;0.60;;
65393;SDS011;52002;49.760;6.512;2023-08-06T04:36:02;1.20;;;0.60;;
65393;SDS011;52002;49.760;6.512;2023-08-06T04:38:28;4.40;;;0.90;;
65393;SDS011;52002;49.760;6.512;2023-08-06T04:40:53;2.30;;;1.00;;
65393;SDS011;52002;49.760;6.512;2023-08-06T04:43:18;3.50;;;0.90;;
65393;SDS011;52002;49.760;6.512;2023-08-06T04:45:47;2.90;;;0.60;;
65393;SDS011;52002;49.760;6.512;2023-08-06T04:48:14;5.20;;;0.80;;
65393;SDS011;52002;49.760;6.512;2023-08-06T04:50:43;3.20;;;0.70;;
65393;SDS011;52002;49.760;6.512;2023-08-06T04:53:09;3.30;;;0.90;;
65393;SDS011;52002;49.760;6.512;2023-08-06T04:55:35;1.60;;;0.60;;
65393;SDS011;52002;49.760;6.512;2023-08-06T04:58:00;4.00;;;0.60;;
65393;SDS011;52002;49.760;6.512;2023-08-06T05:00:25;7.90;;;1.70;;
65393;SDS011;52002;49.760;6.512;2023-08-06T05:02:51;2.20;;;0.60;;
65393;SDS011;52002;49.760;6.512;2023-08-06T05:05:16;2.90;;;0.50;;
65393;SDS011;52002;49.760;6.512;2023-08-06T05:07:41;3.20;;;0.60;;
65393;SDS011;52002;49.760;6.512;2023-08-06T05:10:07;2.10;;;0.50;;
65393;SDS011;52002;49.760;6.512;2023-08-06T05:12:33;1.70;;;0.70;;
65393;SDS011;52002;49.760;6.512;2023-08-06T05:14:58;2.10;;;0.50;;
65393;SDS011;52002;49.760;6.512;2023-08-06T05:17:23;5.20;;;0.80;;
65393;SDS011;52002;49.760;6.512;2023-08-06T05:19:49;3.50;;;0.70;;
65393;SDS011;52002;49.760;6.512;2023-08-06T05:22:14;2.50;;;0.50;;
65393;SDS011;52002;49.760;6.512;2023-08-06T05:24:40;2.40;;;0.30;;
65393;SDS011;52002;49.760;6.512;2023-08-06T05:27:05;3.40;;;0.40;;
65393;SDS011;52002;49.760;6.512;2023-08-06T05:29:30;3.10;;;1.30;;
65393;SDS011;52002;49.760;6.512;2023-08-06T05:31:56;0.90;;;0.30;;
65393;SDS011;52002;49.760;6.512;2023-08-06T05:34:21;7.10;;;0.60;;
65393;SDS011;52002;49.760;6.512;2023-08-06T05:36:46;3.70;;;0.50;;
65393;SDS011;52002;49.760;6.512;2023-08-06T05:39:12;2.00;;;0.10;;
65393;SDS011;52002;49.760;6.512;2023-08-06T05:41:37;2.00;;;0.30;;
65393;SDS011;52002;49.760;6.512;2023-08-06T05:44:02;2.30;;;0.40;;
65393;SDS011;52002;49.760;6.512;2023-08-06T05:46:28;3.20;;;0.30;;
65393;SDS011;52002;49.760;6.512;2023-08-06T05:48:53;3.10;;;0.30;;
65393;SDS011;52002;49.760;6.512;2023-08-06T05:51:18;2.40;;;0.60;;
65393;SDS011;52002;49.760;6.512;2023-08-06T05:53:44;1.30;;;0.40;;
65393;SDS011;52002;49.760;6.512;2023-08-06T05:56:10;3.90;;;0.60;;
65393;SDS011;52002;49.760;6.512;2023-08-06T05:58:36;1.10;;;0.50;;
65393;SDS011;52002;49.760;6.512;2023-08-06T06:01:01;0.40;;;0.30;;
65393;SDS011;52002;49.760;6.512;2023-08-06T06:03:26;2.00;;;0.50;;
65393;SDS011;52002;49.760;6.512;2023-08-06T06:05:52;4.90;;;0.50;;
65393;SDS011;52002;49.760;6.512;2023-08-06T06:08:17;4.50;;;0.30;;
65393;SDS011;52002;49.760;6.512;2023-08-06T06:10:43;2.80;;;0.20;;
65393;SDS011;52002;49.760;6.512;2023-08-06T06:13:08;1.40;;;0.40;;
65393;SDS011;52002;49.760;6.512;2023-08-06T06:15:34;1.30;;;0.40;;
65393;SDS011;52002;49.760;6.512;2023-08-06T06:17:59;3.80;;;0.50;;
65393;SDS011;52002;49.760;6.512;2023-08-06T06:20:24;2.40;;;0.50;;
65393;SDS011;52002;49.760;6.512;2023-08-06T06:22:50;1.60;;;0.20;;
65393;SDS011;52002;49.760;6.512;2023-08-06T06:25:15;1.60;;;0.40;;
65393;SDS011;52002;49.760;6.512;2023-08-06T06:27:40;0.50;;;0.30;;
65393;SDS011;52002;49.760;6.512;2023-08-06T06:30:06;0.30;;;0.30;;
65393;SDS011;52002;49.760;6.512;2023-08-06T06:32:32;1.60;;;0.30;;
65393;SDS011;52002;49.760;6.512;2023-08-06T06:34:57;1.60;;;0.10;;
65393;SDS011;52002;49.760;6.512;2023-08-06T06:37:23;0.40;;;0.30;;
65393;SDS011;52002;49.760;6.512;2023-08-06T06:39:49;0.20;;;0.20;;
65393;SDS011;52002;49.760;6.512;2023-08-06T06:42:14;0.20;;;0.20;;
65393;SDS011;52002;49.760;6.512;2023-08-06T06:44:40;0.70;;;0.20;;
65393;SDS011;52002;49.760;6.512;2023-08-06T06:47:05;0.20;;;0.20;;
65393;SDS011;52002;49.760;6.512;2023-08-06T06:49:31;0.40;;;0.20;;
65393;SDS011;52002;49.760;6.512;2023-08-06T06:51:56;3.60;;;0.20;;
65393;SDS011;52002;49.760;6.512;2023-08-06T06:54:21;0.10;;;0.10;;
65393;SDS011;52002;49.760;6.512;2023-08-06T06:56:47;0.40;;;0.20;;
65393;SDS011;52002;49.760;6.512;2023-08-06T06:59:12;4.80;;;0.30;;
65393;SDS011;52002;49.760;6.512;2023-08-06T07:01:37;0.90;;;0.20;;
65393;SDS011;52002;49.760;6.512;2023-08-06T07:04:03;0.50;;;0.30;;
65393;SDS011;52002;49.760;6.512;2023-08-06T07:06:30;1.90;;;0.20;;
65393;SDS011;52002;49.760;6.512;2023-08-06T07:08:55;0.10;;;0.10;;
65393;SDS011;52002;49.760;6.512;2023-08-06T07:11:21;1.00;;;0.10;;
65393;SDS011;52002;49.760;6.512;2023-08-06T07:13:46;3.80;;;0.20;;
65393;SDS011;52002;49.760;6.512;2023-08-06T07:16:11;0.20;;;0.10;;
65393;SDS011;52002;49.760;6.512;2023-08-06T07:18:37;1.20;;;0.10;;
65393;SDS011;52002;49.760;6.512;2023-08-06T07:21:02;2.00;;;0.20;;
65393;SDS011;52002;49.760;6.512;2023-08-06T07:23:28;4.70;;;0.20;;
65393;SDS011;52002;49.760;6.512;2023-08-06T07:25:53;0.20;;;0.10;;
65393;SDS011;52002;49.760;6.512;2023-08-06T07:28:18;0.80;;;0.20;;
65393;SDS011;52002;49.760;6.512;2023-08-06T07:30:44;0.30;;;0.10;;
65393;SDS011;52002;49.760;6.512;2023-08-06T07:33:10;2.20;;;0.20;;
65393;SDS011;52002;49.760;6.512;2023-08-06T07:35:36;1.50;;;0.20;;
65393;SDS011;52002;49.760;6.512;2023-08-06T07:38:02;6.80;;;0.30;;
65393;SDS011;52002;49.760;6.512;2023-08-06T07:40:28;1.20;;;0.30;;
65393;SDS011;52002;49.760;6.512;2023-08-06T07:42:54;0.20;;;0.20;;
65393;SDS011;52002;49.760;6.512;2023-08-06T07:45:19;0.60;;;0.20;;
65393;SDS011;52002;49.760;6.512;2023-08-06T07:47:45;0.40;;;0.20;;
65393;SDS011;52002;49.760;6.512;2023-08-06T07:50:10;1.50;;;0.20;;
65393;SDS011;52002;49.760;6.512;2023-08-06T07:52:36;0.20;;;0.20;;
65393;SDS011;52002;49.760;6.512;2023-08-06T07:55:01;1.00;;;0.10;;
65393;SDS011;52002;49.760;6.512;2023-08-06T07:57:33;2.10;;;0.20;;
65393;SDS011;52002;49.760;6.512;2023-08-06T07:59:59;0.70;;;0.10;;
65393;SDS011;52002;49.760;6.512;2023-08-06T08:02:25;1.00;;;0.30;;
65393;SDS011;52002;49.760;6.512;2023-08-06T08:04:50;0.30;;;0.10;;
65393;SDS011;52002;49.760;6.512;2023-08-06T08:07:16;0.10;;;0.10;;
65393;SDS011;52002;49.760;6.512;2023-08-06T08:09:41;2.80;;;0.10;;
65393;SDS011;52002;49.760;6.512;2023-08-06T08:12:06;0.90;;;0.20;;
65393;SDS011;52002;49.760;6.512;2023-08-06T08:14:32;0.10;;;0.10;;
65393;SDS011;52002;49.760;6.512;2023-08-06T08:17:01;1.20;;;0.20;;
65393;SDS011;52002;49.760;6.512;2023-08-06T08:19:27;1.70;;;0.20;;
65393;SDS011;52002;49.760;6.512;2023-08-06T08:21:53;0.10;;;0.10;;
65393;SDS011;52002;49.760;6.512;2023-08-06T08:24:19;3.00;;;0.30;;
65393;SDS011;52002;49.760;6.512;2023-08-06T08:26:45;3.70;;;0.20;;
65393;SDS011;52002;49.760;6.512;2023-08-06T08:29:10;1.80;;;0.10;;
65393;SDS011;52002;49.760;6.512;2023-08-06T08:31:35;1.70;;;0.30;;
65393;SDS011;52002;49.760;6.512;2023-08-06T08:34:04;0.50;;;0.30;;
65393;SDS011;52002;49.760;6.512;2023-08-06T08:36:31;0.80;;;0.60;;
65393;SDS011;52002;49.760;6.512;2023-08-06T08:38:56;8.30;;;0.40;;
65393;SDS011;52002;49.760;6.512;2023-08-06T08:41:22;0.50;;;0.30;;
65393;SDS011;52002;49.760;6.512;2023-08-06T08:43:48;0.10;;;0.10;;
65393;SDS011;52002;49.760;6.512;2023-08-06T08:46:17;0.40;;;0.40;;
65393;SDS011;52002;49.760;6.512;2023-08-06T08:48:44;0.30;;;0.20;;
65393;SDS011;52002;49.760;6.512;2023-08-06T08:51:10;0.10;;;0.10;;
65393;SDS011;52002;49.760;6.512;2023-08-06T08:53:37;0.60;;;0.20;;
65393;SDS011;52002;49.760;6.512;2023-08-06T08:56:04;0.80;;;0.30;;
65393;SDS011;52002;49.760;6.512;2023-08-06T08:58:30;0.20;;;0.20;;
65393;SDS011;52002;49.760;6.512;2023-08-06T09:00:56;5.10;;;0.50;;
65393;SDS011;52002;49.760;6.512;2023-08-06T09:03:22;1.40;;;0.30;;
65393;SDS011;52002;49.760;6.512;2023-08-06T09:05:49;2.70;;;0.20;;
65393;SDS011;52002;49.760;6.512;2023-08-06T09:08:18;0.20;;;0.20;;
65393;SDS011;52002;49.760;6.512;2023-08-06T09:10:49;3.10;;;0.20;;
65393;SDS011;52002;49.760;6.512;2023-08-06T09:13:16;1.20;;;0.30;;
65393;SDS011;52002;49.760;6.512;2023-08-06T09:15:41;0.50;;;0.50;;
65393;SDS011;52002;49.760;6.512;2023-08-06T09:18:09;0.70;;;0.40;;
65393;SDS011;52002;49.760;6.512;2023-08-06T09:20:37;1.60;;;0.40;;
65393;SDS011;52002;49.760;6.512;2023-08-06T09:23:09;2.60;;;0.60;;
65393;SDS011;52002;49.760;6.512;2023-08-06T09:25:37;1.90;;;0.80;;
65393;SDS011;52002;49.760;6.512;2023-08-06T09:28:06;2.90;;;0.50;;
65393;SDS011;52002;49.760;6.512;2023-08-06T09:30:33;0.70;;;0.50;;
65393;SDS011;52002;49.760;6.512;2023-08-06T09:32:59;1.40;;;0.60;;
65393;SDS011;52002;49.760;6.512;2023-08-06T09:35:28;1.30;;;0.70;;
65393;SDS011;52002;49.760;6.512;2023-08-06T09:37:55;1.30;;;0.80;;
65393;SDS011;52002;49.760;6.512;2023-08-06T09:40:24;1.70;;;0.90;;
65393;SDS011;52002;49.760;6.512;2023-08-06T09:42:53;2.30;;;1.00;;
65393;SDS011;52002;49.760;6.512;2023-08-06T09:45:19;2.10;;;0.90;;
65393;SDS011;52002;49.760;6.512;2023-08-06T09:47:47;1.70;;;0.70;;
65393;SDS011;52002;49.760;6.512;2023-08-06T09:50:20;1.00;;;0.90;;
65393;SDS011;52002;49.760;6.512;2023-08-06T09:52:46;2.10;;;1.00;;
65393;SDS011;52002;49.760;6.512;2023-08-06T09:55:13;1.70;;;0.90;;
65393;SDS011;52002;49.760;6.512;2023-08-06T09:57:39;2.80;;;1.40;;
65393;SDS011;52002;49.760;6.512;2023-08-06T10:00:06;4.00;;;0.90;;
65393;SDS011;52002;49.760;6.512;2023-08-06T10:02:34;2.00;;;0.90;;
65393;SDS011;52002;49.760;6.512;2023-08-06T10:05:02;2.40;;;1.00;;
65393;SDS011;52002;49.760;6.512;2023-08-06T10:07:28;1.80;;;1.00;;
65393;SDS011;52002;49.760;6.512;2023-08-06T10:09:55;1.00;;;0.60;;
65393;SDS011;52002;49.760;6.512;2023-08-06T10:12:21;4.40;;;1.20;;
65393;SDS011;52002;49.760;6.512;2023-08-06T10:14:47;1.60;;;0.90;;
65393;SDS011;52002;49.760;6.512;2023-08-06T10:17:16;1.50;;;1.00;;
65393;SDS011;52002;49.760;6.512;2023-08-06T10:19:42;1.30;;;0.60;;
65393;SDS011;52002;49.760;6.512;2023-08-06T10:27:16;1.30;;;0.70;;
65393;SDS011;52002;49.760;6.512;2023-08-06T10:29:55;4.70;;;0.80;;
65393;SDS011;52002;49.760;6.512;2023-08-06T10:32:20;1.20;;;0.60;;
65393;SDS011;52002;49.760;6.512;2023-08-06T10:34:59;1.40;;;0.60;;
65393;SDS011;52002;49.760;6.512;2023-08-06T10:37:44;1.40;;;0.60;;
65393;SDS011;52002;49.760;6.512;2023-08-06T10:40:10;1.90;;;0.40;;
65393;SDS011;52002;49.760;6.512;2023-08-06T10:42:35;1.00;;;0.70;;
65393;SDS011;52002;49.760;6.512;2023-08-06T10:45:17;1.20;;;0.60;;
65393;SDS011;52002;49.760;6.512;2023-08-06T10:47:44;2.10;;;0.60;;
65393;SDS011;52002;49.760;6.512;2023-08-06T10:50:16;2.90;;;0.60;;
65393;SDS011;52002;49.760;6.512;2023-08-06T10:52:45;1.90;;;0.90;;
65393;SDS011;52002;49.760;6.512;2023-08-06T10:55:12;1.90;;;0.60;;
65393;SDS011;52002;49.760;6.512;2023-08-06T10:57:38;3.50;;;0.40;;
65393;SDS011;52002;49.760;6.512;2023-08-06T11:00:04;0.30;;;0.30;;
65393;SDS011;52002;49.760;6.512;2023-08-06T11:02:34;0.70;;;0.30;;
65393;SDS011;52002;49.760;6.512;2023-08-06T11:05:07;1.10;;;0.50;;
65393;SDS011;52002;49.760;6.512;2023-08-06T11:07:34;5.40;;;0.50;;
65393;SDS011;52002;49.760;6.512;2023-08-06T11:10:03;0.80;;;0.40;;
65393;SDS011;52002;49.760;6.512;2023-08-06T11:12:31;0.40;;;0.20;;
65393;SDS011;52002;49.760;6.512;2023-08-06T11:14:56;0.60;;;0.30;;
65393;SDS011;52002;49.760;6.512;2023-08-06T11:17:22;0.40;;;0.20;;
65393;SDS011;52002;49.760;6.512;2023-08-06T11:19:47;0.20;;;0.20;;
65393;SDS011;52002;49.760;6.512;2023-08-06T11:22:14;0.60;;;0.30;;
65393;SDS011;52002;49.760;6.512;2023-08-06T11:24:39;1.30;;;0.50;;
65393;SDS011;52002;49.760;6.512;2023-08-06T11:27:12;1.30;;;0.40;;
65393;SDS011;52002;49.760;6.512;2023-08-06T11:29:39;0.90;;;0.40;;
65393;SDS011;52002;49.760;6.512;2023-08-06T11:32:06;1.30;;;0.60;;
65393;SDS011;52002;49.760;6.512;2023-08-06T11:34:33;0.50;;;0.20;;
65393;SDS011;52002;49.760;6.512;2023-08-06T11:36:58;1.50;;;0.60;;
65393;SDS011;52002;49.760;6.512;2023-08-06T11:39:23;0.60;;;0.60;;
65393;SDS011;52002;49.760;6.512;2023-08-06T11:41:49;2.40;;;0.60;;
65393;SDS011;52002;49.760;6.512;2023-08-06T11:44:14;2.10;;;0.50;;
65393;SDS011;52002;49.760;6.512;2023-08-06T11:46:49;2.60;;;0.70;;
65393;SDS011;52002;49.760;6.512;2023-08-06T11:49:34;2.10;;;0.70;;
65393;SDS011;52002;49.760;6.512;2023-08-06T11:52:18;2.40;;;0.60;;
65393;SDS011;52002;49.760;6.512;2023-08-06T11:54:45;5.00;;;0.50;;
65393;SDS011;52002;49.760;6.512;2023-08-06T11:57:12;1.30;;;0.40;;
65393;SDS011;52002;49.760;6.512;2023-08-06T11:59:38;0.70;;;0.30;;
65393;SDS011;52002;49.760;6.512;2023-08-06T12:02:05;0.60;;;0.30;;
65393;SDS011;52002;49.760;6.512;2023-08-06T12:07:25;2.30;;;0.40;;
65393;SDS011;52002;49.760;6.512;2023-08-06T12:09:55;1.20;;;0.40;;
65393;SDS011;52002;49.760;6.512;2023-08-06T12:12:21;3.30;;;0.40;;
65393;SDS011;52002;49.760;6.512;2023-08-06T12:14:46;3.90;;;0.50;;
65393;SDS011;52002;49.760;6.512;2023-08-06T12:17:11;2.50;;;0.60;;
65393;SDS011;52002;49.760;6.512;2023-08-06T12:19:36;1.00;;;0.40;;
65393;SDS011;52002;49.760;6.512;2023-08-06T12:22:02;1.30;;;0.50;;
65393;SDS011;52002;49.760;6.512;2023-08-06T12:24:29;1.50;;;0.50;;
65393;SDS011;52002;49.760;6.512;2023-08-06T12:26:57;1.20;;;0.50;;
65393;SDS011;52002;49.760;6.512;2023-08-06T12:29:23;0.70;;;0.30;;
65393;SDS011;52002;49.760;6.512;2023-08-06T12:31:49;6.00;;;0.30;;
65393;SDS011;52002;49.760;6.512;2023-08-06T12:34:15;1.00;;;0.50;;
65393;SDS011;52002;49.760;6.512;2023-08-06T12:36:40;2.20;;;0.50;;
65393;SDS011;52002;49.760;6.512;2023-08-06T12:39:05;1.60;;;0.40;;
65393;SDS011;52002;49.760;6.512;2023-08-06T12:41:31;2.20;;;0.80;;
65393;SDS011;52002;49.760;6.512;2023-08-06T12:43:56;1.80;;;0.50;;
65393;SDS011;52002;49.760;6.512;2023-08-06T12:46:21;1.90;;;0.50;;
65393;SDS011;52002;49.760;6.512;2023-08-06T12:48:46;0.80;;;0.60;;
65393;SDS011;52002;49.760;6.512;2023-08-06T12:51:13;2.70;;;0.70;;
65393;SDS011;52002;49.760;6.512;2023-08-06T12:53:38;1.20;;;0.50;;
65393;SDS011;52002;49.760;6.512;2023-08-06T12:56:04;1.90;;;0.60;;
65393;SDS011;52002;49.760;6.512;2023-08-06T12:58:30;0.60;;;0.50;;
65393;SDS011;52002;49.760;6.512;2023-08-06T13:00:56;2.50;;;0.60;;
65393;SDS011;52002;49.760;6.512;2023-08-06T13:03:21;3.20;;;0.60;;
65393;SDS011;52002;49.760;6.512;2023-08-06T13:05:47;0.60;;;0.40;;
65393;SDS011;52002;49.760;6.512;2023-08-06T13:08:12;2.00;;;0.60;;
65393;SDS011;52002;49.760;6.512;2023-08-06T13:10:37;0.90;;;0.40;;
65393;SDS011;52002;49.760;6.512;2023-08-06T13:13:03;0.60;;;0.40;;
65393;SDS011;52002;49.760;6.512;2023-08-06T13:15:28;0.90;;;0.40;;
65393;SDS011;52002;49.760;6.512;2023-08-06T13:17:54;1.80;;;0.60;;
65393;SDS011;52002;49.760;6.512;2023-08-06T13:20:19;2.30;;;0.60;;
65393;SDS011;52002;49.760;6.512;2023-08-06T13:22:45;1.00;;;0.40;;
65393;SDS011;52002;49.760;6.512;2023-08-06T13:25:11;2.10;;;0.50;;
65393;SDS011;52002;49.760;6.512;2023-08-06T13:27:39;0.40;;;0.40;;
65393;SDS011;52002;49.760;6.512;2023-08-06T13:30:05;2.90;;;0.30;;
65393;SDS011;52002;49.760;6.512;2023-08-06T13:32:31;1.40;;;0.60;;
65393;SDS011;52002;49.760;6.512;2023-08-06T13:34:57;2.00;;;0.70;;
65393;SDS011;52002;49.760;6.512;2023-08-06T13:37:23;0.70;;;0.50;;
65393;SDS011;52002;49.760;6.512;2023-08-06T13:39:48;2.60;;;0.40;;
65393;SDS011;52002;49.760;6.512;2023-08-06T13:42:13;2.30;;;0.50;;
65393;SDS011;52002;49.760;6.512;2023-08-06T13:44:39;1.00;;;0.30;;
65393;SDS011;52002;49.760;6.512;2023-08-06T13:47:04;0.50;;;0.40;;
65393;SDS011;52002;49.760;6.512;2023-08-06T13:49:29;1.10;;;0.40;;
65393;SDS011;52002;49.760;6.512;2023-08-06T13:51:54;6.70;;;0.50;;
65393;SDS011;52002;49.760;6.512;2023-08-06T13:54:20;6.40;;;0.50;;
65393;SDS011;52002;49.760;6.512;2023-08-06T13:56:46;1.10;;;0.30;;
65393;SDS011;52002;49.760;6.512;2023-08-06T13:59:11;2.50;;;0.40;;
65393;SDS011;52002;49.760;6.512;2023-08-06T14:01:38;0.50;;;0.30;;
65393;SDS011;52002;49.760;6.512;2023-08-06T14:04:03;0.90;;;0.40;;
65393;SDS011;52002;49.760;6.512;2023-08-06T14:06:29;1.80;;;0.40;;
65393;SDS011;52002;49.760;6.512;2023-08-06T14:08:55;1.20;;;0.30;;
65393;SDS011;52002;49.760;6.512;2023-08-06T14:11:21;1.10;;;0.30;;
65393;SDS011;52002;49.760;6.512;2023-08-06T14:13:46;2.70;;;0.50;;
65393;SDS011;52002;49.760;6.512;2023-08-06T14:16:12;0.80;;;0.30;;
65393;SDS011;52002;49.760;6.512;2023-08-06T14:18:37;0.90;;;0.30;;
65393;SDS011;52002;49.760;6.512;2023-08-06T14:21:03;1.00;;;0.40;;
65393;SDS011;52002;49.760;6.512;2023-08-06T14:23:32;2.40;;;0.40;;
65393;SDS011;52002;49.760;6.512;2023-08-06T14:25:57;3.80;;;0.50;;
65393;SDS011;52002;49.760;6.512;2023-08-06T14:28:22;2.60;;;0.80;;
65393;SDS011;52002;49.760;6.512;2023-08-06T14:30:48;3.50;;;0.60;;
65393;SDS011;52002;49.760;6.512;2023-08-06T14:33:13;2.20;;;0.60;;
65393;SDS011;52002;49.760;6.512;2023-08-06T14:35:38;1.80;;;0.50;;
65393;SDS011;52002;49.760;6.512;2023-08-06T14:38:03;0.80;;;0.50;;
65393;SDS011;52002;49.760;6.512;2023-08-06T14:40:29;2.60;;;0.70;;
65393;SDS011;52002;49.760;6.512;2023-08-06T14:42:59;2.10;;;0.60;;
65393;SDS011;52002;49.760;6.512;2023-08-06T14:45:25;2.00;;;0.40;;
65393;SDS011;52002;49.760;6.512;2023-08-06T14:47:50;1.90;;;0.70;;
65393;SDS011;52002;49.760;6.512;2023-08-06T14:50:15;3.30;;;0.80;;
65393;SDS011;52002;49.760;6.512;2023-08-06T14:52:41;0.80;;;0.50;;
65393;SDS011;52002;49.760;6.512;2023-08-06T14:55:06;0.70;;;0.40;;
65393;SDS011;52002;49.760;6.512;2023-08-06T14:57:32;3.20;;;0.80;;
65393;SDS011;52002;49.760;6.512;2023-08-06T14:59:57;1.40;;;0.70;;